^^
Your Local Weather - Clay, NY Station Historical Data
Daily Summary for July 20, 2017 Units:  English    Metric   Both
« Previous Day
Next Day »
Daily Weekly Monthly Yearly Custom
  High: Low: Average:
Temperature: 81.2 °F 66.3 °F 72.3 °F
Dew Point: 69.1 °F 56.7 °F 65 °F
Humidity: 92% 52% 79%
Wind Speed: 6.0mph 0.0mph 0.6mph
Wind Gust: 10.0mph - -
Wind- - SW
Pressure: 29.95 in 29.82 in -
Precipitation: 0.05 in    
Historical Graphs
 
 
Tabular Data for July 20, 2017
Time Temperature Dew Point Pressure Wind Wind Speed Wind Gust Humidity Rainfall Rate (Hourly) solar
00:00 71.4 °F 68.0 °F 29.94 in Calm     89% 0.00 in 0 W/m2
00:06 71.3 °F 67.9 °F 29.94 in Calm     89% 0.00 in 0 W/m2
00:12 71.3 °F 68.2 °F 29.94 in Calm     90% 0.00 in 0 W/m2
00:18 71.4 °F 68.3 °F 29.95 in Calm     90% 0.00 in 0 W/m2
00:24 71.5 °F 68.4 °F 29.94 in Calm     90% 0.00 in 0 W/m2
00:30 71.5 °F 68.4 °F 29.94 in Calm     90% 0.00 in 0 W/m2
00:36 71.6 °F 68.5 °F 29.94 in Calm     90% 0.00 in 0 W/m2
00:42 71.5 °F 68.4 °F 29.94 in Calm     90% 0.00 in 0 W/m2
00:48 71.2 °F 68.1 °F 29.94 in Calm     90% 0.00 in 0 W/m2
00:54 71.1 °F 68.0 °F 29.94 in Calm     90% 0.00 in 0 W/m2
01:00 71.0 °F 67.9 °F 29.94 in Calm     90% 0.00 in 0 W/m2
01:06 70.9 °F 67.8 °F 29.94 in Calm     90% 0.00 in 0 W/m2
01:12 70.6 °F 67.5 °F 29.93 in Calm     90% 0.00 in 0 W/m2
01:18 70.3 °F 67.2 °F 29.92 in Calm     90% 0.00 in 0 W/m2
01:24 70.2 °F 67.1 °F 29.93 in Calm     90% 0.00 in 0 W/m2
01:30 70.1 °F 67.0 °F 29.93 in Calm     90% 0.00 in 0 W/m2
01:36 69.9 °F 66.8 °F 29.92 in Calm     90% 0.00 in 0 W/m2
01:42 69.8 °F 66.7 °F 29.92 in Calm     90% 0.00 in 0 W/m2
01:48 69.6 °F 66.9 °F 29.92 in Calm     91% 0.00 in 0 W/m2
01:54 69.5 °F 66.8 °F 29.92 in Calm     91% 0.00 in 0 W/m2
02:00 69.4 °F 66.7 °F 29.92 in Calm     91% 0.00 in 0 W/m2
02:06 69.4 °F 66.7 °F 29.92 in Calm     91% 0.00 in 0 W/m2
02:12 69.3 °F 66.6 °F 29.92 in Calm     91% 0.00 in 0 W/m2
02:18 69.3 °F 66.6 °F 29.92 in Calm     91% 0.00 in 0 W/m2
02:24 69.2 °F 66.5 °F 29.92 in Calm     91% 0.00 in 0 W/m2
02:30 69.2 °F 66.5 °F 29.92 in Calm     91% 0.00 in 0 W/m2
02:36 69.2 °F 66.8 °F 29.92 in Calm     92% 0.00 in 0 W/m2
02:42 69.2 °F 66.8 °F 29.91 in Calm     92% 0.00 in 0 W/m2
02:48 69.4 °F 67.0 °F 29.91 in Calm     92% 0.00 in 0 W/m2
02:54 69.4 °F 67.0 °F 29.91 in Calm     92% 0.00 in 0 W/m2
03:00 69.4 °F 66.7 °F 29.92 in Calm     91% 0.00 in 0 W/m2
03:06 69.3 °F 66.6 °F 29.91 in Calm     91% 0.00 in 0 W/m2
03:12 69.3 °F 66.6 °F 29.91 in Calm     91% 0.00 in 0 W/m2
03:18 69.2 °F 66.5 °F 29.92 in Calm     91% 0.00 in 0 W/m2
03:24 69.4 °F 66.7 °F 29.91 in Calm     91% 0.00 in 0 W/m2
03:30 69.6 °F 66.5 °F 29.91 in Calm     90% 0.00 in 0 W/m2
03:36 69.8 °F 66.7 °F 29.91 in Calm   1.0 mph 90% 0.00 in 0 W/m2
03:42 70.0 °F 66.6 °F 29.91 in Calm     89% 0.00 in 0 W/m2
03:48 70.1 °F 66.4 °F 29.91 in Calm   1.0 mph 88% 0.00 in 0 W/m2
03:54 70.1 °F 66.0 °F 29.91 in SW 1.0 mph 1.0 mph 87% 0.00 in 0 W/m2
04:00 70.1 °F 66.0 °F 29.92 in SW 1.0 mph 1.0 mph 87% 0.00 in 0 W/m2
04:06 70.1 °F 66.0 °F 29.92 in SSW 1.0 mph 3.0 mph 87% 0.00 in 0 W/m2
04:12 70.0 °F 66.0 °F 29.92 in SSW 1.0 mph 2.0 mph 87% 0.00 in 0 W/m2
04:18 69.9 °F 65.9 °F 29.92 in SW 1.0 mph 2.0 mph 87% 0.00 in 0 W/m2
04:24 69.8 °F 65.4 °F 29.91 in SW 1.0 mph 2.0 mph 86% 0.00 in 0 W/m2
04:30 69.7 °F 65.7 °F 29.91 in Calm     87% 0.00 in 0 W/m2
04:36 69.6 °F 65.6 °F 29.91 in Calm   1.0 mph 87% 0.00 in 0 W/m2
04:42 69.4 °F 65.4 °F 29.91 in Calm     87% 0.00 in 0 W/m2
04:48 69.2 °F 65.2 °F 29.91 in Calm     87% 0.00 in 0 W/m2
04:54 69.1 °F 65.1 °F 29.91 in Calm     87% 0.00 in 0 W/m2
05:00 68.9 °F 64.9 °F 29.92 in Calm     87% 0.00 in 0 W/m2
05:06 68.6 °F 64.6 °F 29.91 in Calm     87% 0.00 in 0 W/m2
05:12 68.3 °F 64.6 °F 29.92 in Calm     88% 0.00 in 0 W/m2
05:18 67.9 °F 64.2 °F 29.92 in Calm     88% 0.00 in 0 W/m2
05:24 67.7 °F 64.3 °F 29.93 in Calm     89% 0.00 in 0 W/m2
05:30 67.4 °F 64.0 °F 29.92 in Calm     89% 0.00 in 0 W/m2
05:36 67.2 °F 63.8 °F 29.92 in Calm     89% 0.00 in 0 W/m2
05:42 67.2 °F 64.2 °F 29.92 in Calm     90% 0.00 in 5 W/m2
05:48 67.1 °F 64.1 °F 29.92 in Calm     90% 0.00 in 5 W/m2
05:54 67.0 °F 64.0 °F 29.93 in Calm     90% 0.00 in 11 W/m2
06:00 66.9 °F 63.9 °F 29.94 in Calm     90% 0.00 in 16 W/m2
06:06 66.9 °F 63.9 °F 29.93 in Calm     90% 0.00 in 18 W/m2
06:12 67.0 °F 64.3 °F 29.93 in Calm     91% 0.00 in 25 W/m2
06:18 67.2 °F 64.5 °F 29.93 in Calm     91% 0.00 in 39 W/m2
06:24 67.4 °F 64.7 °F 29.93 in Calm     91% 0.00 in 51 W/m2
06:30 67.7 °F 65.0 °F 29.92 in Calm     91% 0.00 in 54 W/m2
06:36 67.9 °F 65.2 °F 29.92 in Calm   1.0 mph 91% 0.00 in 77 W/m2
06:42 68.4 °F 65.7 °F 29.92 in Calm     91% 0.00 in 130 W/m2
06:48 68.9 °F 65.8 °F 29.92 in SW 1.0 mph 2.0 mph 90% 0.00 in 163 W/m2
06:54 69.4 °F 66.0 °F 29.92 in Calm   3.0 mph 89% 0.00 in 91 W/m2
07:00 69.6 °F 65.9 °F 29.92 in SW 1.0 mph 1.0 mph 88% 0.00 in 79 W/m2
07:06 69.7 °F 66.0 °F 29.92 in SW 1.0 mph 2.0 mph 88% 0.00 in 88 W/m2
07:12 69.7 °F 65.7 °F 29.93 in SW 1.0 mph 1.0 mph 87% 0.00 in 56 W/m2
07:18 69.7 °F 65.7 °F 29.93 in SW 1.0 mph 2.0 mph 87% 0.00 in 63 W/m2
07:24 69.6 °F 65.6 °F 29.93 in SW 1.0 mph 2.0 mph 87% 0.00 in 46 W/m2
07:30 69.5 °F 65.5 °F 29.92 in SW 1.0 mph 1.0 mph 87% 0.00 in 102 W/m2
07:36 69.9 °F 65.9 °F 29.93 in SW 1.0 mph 2.0 mph 87% 0.00 in 186 W/m2
07:42 70.4 °F 66.3 °F 29.93 in Calm   2.0 mph 87% 0.00 in 258 W/m2
07:48 70.9 °F 66.5 °F 29.93 in SW 1.0 mph 3.0 mph 86% 0.00 in 345 W/m2
07:54 71.3 °F 66.6 °F 29.93 in WSW 1.0 mph 1.0 mph 85% 0.00 in 158 W/m2
08:00 71.5 °F 66.4 °F 29.93 in Calm     84% 0.00 in 169 W/m2
08:06 71.6 °F 66.5 °F 29.94 in Calm     84% 0.00 in 258 W/m2
08:12 71.7 °F 66.6 °F 29.94 in Calm     84% 0.00 in 156 W/m2
08:18 71.9 °F 67.1 °F 29.94 in Calm     85% 0.00 in 153 W/m2
08:24 72.0 °F 67.2 °F 29.94 in Calm   2.0 mph 85% 0.00 in 144 W/m2
08:30 72.0 °F 66.9 °F 29.94 in Calm     84% 0.00 in 258 W/m2
08:36 72.2 °F 67.1 °F 29.94 in WSW 1.0 mph 4.0 mph 84% 0.00 in 272 W/m2
08:42 72.2 °F 67.1 °F 29.94 in WSW 2.0 mph 2.0 mph 84% 0.00 in 313 W/m2
08:48 72.6 °F 67.5 °F 29.94 in WSW 1.0 mph 2.0 mph 84% 0.00 in 452 W/m2
08:54 73.4 °F 68.3 °F 29.94 in Calm   1.0 mph 84% 0.00 in 464 W/m2
09:00 74.0 °F 68.2 °F 29.94 in Calm   3.0 mph 82% 0.00 in 508 W/m2
09:06 74.6 °F 68.0 °F 29.94 in Calm   3.0 mph 80% 0.00 in 374 W/m2
09:12 75.0 °F 68.0 °F 29.95 in Calm     79% 0.00 in 543 W/m2
09:18 75.3 °F 67.6 °F 29.94 in SSW 1.0 mph 2.0 mph 77% 0.00 in 548 W/m2
09:24 75.5 °F 66.6 °F 29.94 in WSW 1.0 mph 1.0 mph 74% 0.00 in 628 W/m2
09:30 76.0 °F 67.1 °F 29.94 in Calm     74% 0.00 in 264 W/m2
09:36 76.4 °F 67.1 °F 29.94 in West 1.0 mph 1.0 mph 73% 0.00 in 657 W/m2
09:42 76.2 °F 66.5 °F 29.94 in West 2.0 mph 4.0 mph 72% 0.00 in 668 W/m2
09:48 76.5 °F 66.4 °F 29.94 in SW 1.0 mph 5.0 mph 71% 0.00 in 540 W/m2
09:52 76.5 °F 66.0 °F 29.94 in WSW 2.0 mph 4.0 mph 70% 0.00 in 689 W/m2
09:58 76.8 °F 66.3 °F 29.94 in WSW 2.0 mph 5.0 mph 70% 0.00 in 737 W/m2
10:04 77.1 °F 66.1 °F 29.93 in WSW 2.0 mph 3.0 mph 69% 0.00 in 524 W/m2
10:10 77.0 °F 66.5 °F 29.93 in WSW 1.0 mph 1.0 mph 70% 0.00 in 647 W/m2
10:16 77.1 °F 67.0 °F 29.92 in WSW 1.0 mph 3.0 mph 71% 0.00 in 846 W/m2
10:22 77.1 °F 67.4 °F 29.92 in WNW 2.0 mph 2.0 mph 72% 0.00 in 846 W/m2
10:28 76.6 °F 66.5 °F 29.92 in SW 2.0 mph 3.0 mph 71% 0.00 in 297 W/m2
10:34 76.7 °F 67.0 °F 29.92 in WSW 2.0 mph 2.0 mph 72% 0.00 in 489 W/m2
10:40 77.3 °F 66.7 °F 29.91 in WSW 1.0 mph 1.0 mph 70% 0.00 in 717 W/m2
10:46 78.0 °F 66.2 °F 29.91 in SW 1.0 mph 1.0 mph 67% 0.00 in 784 W/m2
10:52 78.7 °F 68.1 °F 29.91 in SW 1.0 mph 3.0 mph 70% 0.00 in 893 W/m2
10:58 78.4 °F 66.5 °F 29.91 in SW 2.0 mph 5.0 mph 67% 0.00 in 842 W/m2
11:04 78.4 °F 66.5 °F 29.91 in WSW 3.0 mph 4.0 mph 67% 0.00 in 853 W/m2
11:10 79.0 °F 66.7 °F 29.91 in SW 2.0 mph 2.0 mph 66% 0.00 in 904 W/m2
11:16 78.9 °F 66.6 °F 29.91 in South 2.0 mph 4.0 mph 66% 0.00 in 833 W/m2
11:22 80.0 °F 67.2 °F 29.91 in SE 2.0 mph 2.0 mph 65% 0.00 in 888 W/m2
11:28 79.8 °F 67.0 °F 29.91 in WSW 1.0 mph 5.0 mph 65% 0.00 in 930 W/m2
11:36 80.2 °F 67.4 °F 29.90 in Calm   3.0 mph 65% 0.00 in 758 W/m2
11:42 79.6 °F 67.7 °F 29.89 in NW 1.0 mph 2.0 mph 67% 0.00 in 271 W/m2
11:48 79.8 °F 67.4 °F 29.89 in SW 1.0 mph 4.0 mph 66% 0.00 in 654 W/m2
11:54 80.4 °F 67.6 °F 29.89 in NNW 1.0 mph 1.0 mph 65% 0.00 in 464 W/m2
12:00 81.1 °F 69.1 °F 29.90 in WSW 1.0 mph 1.0 mph 67% 0.00 in 933 W/m2
12:06 80.9 °F 66.2 °F 29.89 in NNW 1.0 mph 2.0 mph 61% 0.00 in 793 W/m2
12:12 80.5 °F 65.8 °F 29.89 in SW 1.0 mph 2.0 mph 61% 0.00 in 953 W/m2
12:18 81.2 °F 67.9 °F 29.89 in WNW 1.0 mph 2.0 mph 64% 0.00 in 1051 W/m2
12:24 80.9 °F 66.7 °F 29.90 in SW 2.0 mph 5.0 mph 62% 0.00 in 946 W/m2
12:30 80.5 °F 66.7 °F 29.90 in NW 3.0 mph 3.0 mph 63% 0.00 in 487 W/m2
12:36 80.0 °F 64.4 °F 29.89 in SSW 2.0 mph 3.0 mph 59% 0.00 in 513 W/m2
12:42 80.4 °F 65.2 °F 29.89 in NW 2.0 mph 3.0 mph 60% 0.00 in 483 W/m2
12:48 80.5 °F 67.2 °F 29.89 in WNW 1.0 mph 3.0 mph 64% 0.00 in 406 W/m2
12:54 80.6 °F 64.9 °F 29.91 in Calm   1.0 mph 59% 0.00 in 499 W/m2
13:00 80.7 °F 65.5 °F 29.91 in NNW 1.0 mph 1.0 mph 60% 0.00 in 452 W/m2
13:06 80.8 °F 66.1 °F 29.92 in NNW 1.0 mph 1.0 mph 61% 0.00 in 357 W/m2
13:12 80.3 °F 65.6 °F 29.92 in North 1.0 mph 5.0 mph 61% 0.00 in 383 W/m2
13:18 79.7 °F 66.0 °F 29.92 in North 2.0 mph 5.0 mph 63% 0.00 in 413 W/m2
13:24 79.5 °F 66.3 °F 29.92 in NW 1.0 mph 2.0 mph 64% 0.00 in 258 W/m2
13:30 79.1 °F 65.4 °F 29.92 in NW 1.0 mph 1.0 mph 63% 0.00 in 206 W/m2
13:36 78.5 °F 65.8 °F 29.92 in NW 1.0 mph 2.0 mph 65% 0.00 in 237 W/m2
13:42 78.2 °F 66.3 °F 29.92 in NW 1.0 mph 1.0 mph 67% 0.00 in 227 W/m2
13:48 78.0 °F 66.2 °F 29.92 in NW 1.0 mph 1.0 mph 67% 0.00 in 156 W/m2
13:54 77.8 °F 66.4 °F 29.92 in NW 1.0 mph 1.0 mph 68% 0.00 in 128 W/m2
14:00 77.5 °F 66.1 °F 29.91 in NNE 1.0 mph 1.0 mph 68% 0.00 in 104 W/m2
14:06 77.0 °F 65.2 °F 29.91 in WNW 2.0 mph 6.0 mph 67% 0.00 in 81 W/m2
14:12 76.4 °F 65.5 °F 29.92 in WNW 3.0 mph 3.0 mph 69% 0.00 in 79 W/m2
14:18 76.0 °F 65.5 °F 29.92 in NNE 2.0 mph 7.0 mph 70% 0.00 in 62 W/m2
14:24 75.3 °F 65.6 °F 29.91 in NNE 3.0 mph 4.0 mph 72% 0.00 in 53 W/m2
14:30 74.6 °F 65.8 °F 29.92 in NNW 4.0 mph 5.0 mph 74% 0.00 in 44 W/m2
14:36 73.4 °F 65.7 °F 29.93 in North 5.0 mph 10.0 mph 77% 0.00 in 53 W/m2
14:42 72.2 °F 65.0 °F 29.92 in North 6.0 mph 7.0 mph 78% 0.00 in 105 W/m2
14:48 71.6 °F 65.1 °F 29.91 in NNW 4.0 mph 7.0 mph 80% 0.00 in 146 W/m2
14:54 70.9 °F 64.1 °F 29.92 in North 2.0 mph 3.0 mph 79% 0.00 in 86 W/m2
15:00 70.6 °F 63.8 °F 29.92 in NNW 1.0 mph 1.0 mph 79% 0.06 in 81 W/m2
15:06 70.5 °F 64.0 °F 29.91 in Calm   1.0 mph 80% 0.05 in 97 W/m2
15:12 70.1 °F 64.7 °F 29.90 in Calm     83% 0.00 in 93 W/m2
15:18 69.9 °F 64.8 °F 29.90 in Calm     84% 0.00 in 74 W/m2
15:24 69.6 °F 65.2 °F 29.89 in Calm     86% 0.00 in 107 W/m2
15:30 69.2 °F 64.5 °F 29.89 in Calm     85% 0.06 in 128 W/m2
15:36 69.4 °F 64.7 °F 29.89 in Calm     85% 0.06 in 179 W/m2
15:42 69.7 °F 65.3 °F 29.88 in Calm     86% 0.06 in 185 W/m2
15:48 69.6 °F 64.9 °F 29.86 in Calm   1.0 mph 85% 0.05 in 216 W/m2
15:54 69.6 °F 64.5 °F 29.86 in ESE 1.0 mph 2.0 mph 84% 0.00 in 332 W/m2
16:00 70.1 °F 65.4 °F 29.86 in East 1.0 mph 3.0 mph 85% 0.00 in 374 W/m2
16:06 70.4 °F 64.6 °F 29.86 in ENE 1.0 mph 3.0 mph 82% 0.00 in 294 W/m2
16:12 70.9 °F 64.8 °F 29.86 in ESE 1.0 mph 2.0 mph 81% 0.00 in 896 W/m2
16:18 71.4 °F 63.8 °F 29.85 in ENE 1.0 mph 4.0 mph 77% 0.00 in 227 W/m2
16:24 71.1 °F 64.6 °F 29.84 in SSE 1.0 mph 4.0 mph 80% 0.00 in 229 W/m2
16:30 71.9 °F 65.8 °F 29.84 in SSE 1.0 mph 1.0 mph 81% 0.00 in 320 W/m2
16:36 72.7 °F 63.5 °F 29.84 in SSE 2.0 mph 4.0 mph 73% 0.00 in 283 W/m2
16:42 73.1 °F 65.5 °F 29.84 in South 2.0 mph 2.0 mph 77% 0.00 in 668 W/m2
16:48 73.2 °F 65.2 °F 29.83 in SSE 3.0 mph 5.0 mph 76% 0.00 in 617 W/m2
16:54 73.5 °F 64.7 °F 29.84 in SW 3.0 mph 3.0 mph 74% 0.00 in 599 W/m2
17:00 73.6 °F 64.4 °F 29.84 in SSW 2.0 mph 5.0 mph 73% 0.00 in 306 W/m2
17:06 73.7 °F 64.9 °F 29.84 in SE 2.0 mph 6.0 mph 74% 0.00 in 93 W/m2
17:12 73.9 °F 63.9 °F 29.83 in SSW 3.0 mph 3.0 mph 71% 0.00 in 62 W/m2
17:18 74.0 °F 62.8 °F 29.83 in SSE 2.0 mph 3.0 mph 68% 0.00 in 60 W/m2
17:24 74.3 °F 62.2 °F 29.83 in SSE 3.0 mph 3.0 mph 66% 0.00 in 81 W/m2
17:30 74.4 °F 61.0 °F 29.83 in South 2.0 mph 3.0 mph 63% 0.00 in 90 W/m2
17:36 74.8 °F 59.5 °F 29.83 in SSE 2.0 mph 4.0 mph 59% 0.00 in 67 W/m2
17:42 75.1 °F 59.3 °F 29.82 in SSE 2.0 mph 3.0 mph 58% 0.00 in 63 W/m2
17:48 75.3 °F 60.5 °F 29.82 in SSW 1.0 mph 3.0 mph 60% 0.00 in 81 W/m2
17:54 75.3 °F 57.5 °F 29.82 in SSW 1.0 mph 2.0 mph 54% 0.00 in 63 W/m2
18:00 75.4 °F 59.6 °F 29.82 in Calm   2.0 mph 58% 0.00 in 60 W/m2
18:06 75.6 °F 56.7 °F 29.82 in SSW 1.0 mph 2.0 mph 52% 0.00 in 53 W/m2
18:12 75.7 °F 57.4 °F 29.82 in Calm   2.0 mph 53% 0.00 in 58 W/m2
18:18 75.7 °F 57.9 °F 29.82 in SSW 1.0 mph 2.0 mph 54% 0.00 in 51 W/m2
18:24 75.8 °F 59.5 °F 29.83 in Calm   1.0 mph 57% 0.00 in 44 W/m2
18:30 75.9 °F 58.1 °F 29.82 in Calm     54% 0.00 in 42 W/m2
18:36 75.9 °F 57.5 °F 29.82 in Calm   1.0 mph 53% 0.00 in 46 W/m2
18:42 76.0 °F 59.2 °F 29.82 in Calm     56% 0.00 in 40 W/m2
18:48 75.9 °F 59.1 °F 29.82 in Calm   1.0 mph 56% 0.00 in 37 W/m2
18:54 75.9 °F 59.6 °F 29.82 in Calm     57% 0.00 in 37 W/m2
19:00 75.8 °F 60.0 °F 29.82 in Calm     58% 0.00 in 33 W/m2
19:06 75.6 °F 59.8 °F 29.82 in Calm     58% 0.00 in 33 W/m2
19:12 75.3 °F 60.5 °F 29.82 in Calm     60% 0.00 in 23 W/m2
19:18 75.0 °F 61.5 °F 29.82 in Calm   2.0 mph 63% 0.00 in 30 W/m2
19:24 74.9 °F 62.8 °F 29.83 in Calm     66% 0.00 in 35 W/m2
19:30 74.6 °F 62.5 °F 29.82 in Calm     66% 0.00 in 37 W/m2
19:36 74.4 °F 62.7 °F 29.83 in Calm     67% 0.00 in 26 W/m2
19:42 74.1 °F 63.3 °F 29.83 in Calm     69% 0.00 in 30 W/m2
19:48 73.6 °F 62.8 °F 29.83 in Calm     69% 0.00 in 26 W/m2
19:54 72.9 °F 62.9 °F 29.83 in Calm     71% 0.00 in 21 W/m2
20:00 72.3 °F 63.9 °F 29.83 in Calm     75% 0.00 in 23 W/m2
20:06 71.6 °F 64.0 °F 29.83 in Calm     77% 0.00 in 19 W/m2
20:12 71.0 °F 64.2 °F 29.83 in Calm     79% 0.00 in 16 W/m2
20:18 70.5 °F 63.7 °F 29.83 in Calm     79% 0.00 in 14 W/m2
20:24 70.2 °F 63.4 °F 29.83 in Calm     79% 0.00 in 11 W/m2
20:30 69.8 °F 63.0 °F 29.83 in Calm     79% 0.00 in 7 W/m2
20:36 69.5 °F 62.3 °F 29.83 in Calm     78% 0.00 in 0 W/m2
20:42 69.5 °F 62.7 °F 29.84 in Calm     79% 0.00 in 0 W/m2
20:48 69.5 °F 63.1 °F 29.84 in Calm     80% 0.00 in 0 W/m2
20:54 69.5 °F 62.7 °F 29.84 in Calm     79% 0.00 in 0 W/m2
21:00 69.5 °F 62.7 °F 29.85 in Calm     79% 0.00 in 0 W/m2
21:06 69.4 °F 62.2 °F 29.85 in Calm     78% 0.00 in 0 W/m2
21:12 69.4 °F 62.6 °F 29.85 in Calm     79% 0.00 in 0 W/m2
21:18 69.5 °F 63.1 °F 29.85 in Calm     80% 0.00 in 0 W/m2
21:24 69.4 °F 63.0 °F 29.86 in Calm     80% 0.00 in 0 W/m2
21:30 69.3 °F 63.2 °F 29.86 in Calm     81% 0.00 in 0 W/m2
21:36 69.3 °F 63.2 °F 29.86 in Calm     81% 0.00 in 0 W/m2
21:42 69.4 °F 64.0 °F 29.86 in Calm     83% 0.00 in 0 W/m2
21:48 69.3 °F 63.9 °F 29.86 in Calm     83% 0.00 in 0 W/m2
21:56 69.2 °F 63.5 °F 29.86 in Calm     82% 0.00 in 0 W/m2
22:02 69.1 °F 63.0 °F 29.85 in Calm     81% 0.00 in 0 W/m2
22:08 69.0 °F 62.9 °F 29.85 in Calm     81% 0.00 in 0 W/m2
22:14 69.0 °F 63.3 °F 29.85 in Calm     82% 0.00 in 0 W/m2
22:20 68.8 °F 63.8 °F 29.85 in Calm     84% 0.00 in 0 W/m2
22:26 68.5 °F 63.5 °F 29.85 in Calm     84% 0.00 in 0 W/m2
22:32 68.1 °F 63.4 °F 29.85 in Calm     85% 0.00 in 0 W/m2
22:38 67.9 °F 63.6 °F 29.85 in Calm     86% 0.00 in 0 W/m2
22:42 67.8 °F 63.5 °F 29.85 in Calm     86% 0.00 in 0 W/m2
22:48 67.6 °F 63.3 °F 29.85 in Calm     86% 0.00 in 0 W/m2
22:54 67.6 °F 63.6 °F 29.85 in Calm     87% 0.00 in 0 W/m2
23:00 67.6 °F 63.6 °F 29.85 in Calm     87% 0.00 in 0 W/m2
23:06 67.5 °F 63.5 °F 29.85 in Calm     87% 0.00 in 0 W/m2
23:12 67.4 °F 63.4 °F 29.85 in Calm     87% 0.00 in 0 W/m2
23:18 67.1 °F 63.1 °F 29.85 in Calm     87% 0.00 in 0 W/m2
23:24 66.9 °F 63.2 °F 29.85 in Calm     88% 0.00 in 0 W/m2
23:30 66.8 °F 63.1 °F 29.85 in Calm     88% 0.00 in 0 W/m2
23:36 66.6 °F 62.9 °F 29.85 in Calm     88% 0.00 in 0 W/m2
23:42 66.5 °F 62.8 °F 29.85 in Calm     88% 0.00 in 0 W/m2
23:48 66.3 °F 63.0 °F 29.85 in Calm     89% 0.00 in 0 W/m2
23:54 66.3 °F 63.0 °F 29.85 in Calm     89% 0.00 in 0 W/m2
Country Meadow, Clay, NY, USA
Compliments of Weather Underground - 2 mb